Birch Harbor, Maine
Current Conditions -  °F | °C
As of 1:55 AM on Saturday 25 Oct 2014 (Local Time) from KBHB Reporting Station
Overcast Overcast  
Wind Chill: 40°   Ceiling: 1200
Heat Index: 45°   Visibility: 10mi
Dew Point: 45°   Wind: 8mph
Humidity: 100%   Direction: 330°NNW
Pressure: 29.63"   Gusts: NA
Location:  44.39°N, 68.04°W
Report Text: KBHB 250555Z AUTO 33007KT 10SM OVC012 07/07 A2963 RMK AO1 60001 10070 20060 57003
Loading
Personal Weather Stations






























Interactive Weather Map
Tropical Storm Tracking
New forecast layout! Learn more

10-Day Weather Forecast

Advertisements
Track Severe Weather on mobile